createdAt,value
2023-05-14T00:02:50.207Z,87.33
2023-05-14T00:05:48.737Z,87.42
2023-05-14T00:08:46.432Z,87.44
2023-05-14T00:11:43.897Z,87.41
2023-05-14T00:14:41.630Z,87.44
2023-05-14T00:17:39.086Z,87.43
2023-05-14T00:20:36.708Z,87.41
2023-05-14T00:23:34.331Z,87.38
2023-05-14T00:26:31.780Z,87.38
2023-05-14T00:29:29.663Z,87.34
2023-05-14T00:32:27.090Z,87.30
2023-05-14T00:35:24.774Z,87.13
2023-05-14T00:38:24.218Z,87.05
2023-05-14T00:41:21.914Z,87.07
2023-05-14T00:44:19.610Z,87.05
2023-05-14T00:47:17.054Z,86.78
2023-05-14T00:50:14.732Z,86.67
2023-05-14T00:53:12.410Z,86.36
2023-05-14T00:56:10.165Z,86.12
2023-05-14T00:59:07.590Z,86.05
2023-05-14T01:02:05.149Z,85.93
2023-05-14T01:05:02.858Z,85.87
2023-05-14T01:08:00.301Z,85.96
2023-05-14T01:10:57.998Z,85.87
2023-05-14T01:13:55.461Z,85.76
2023-05-14T01:16:53.252Z,85.60
2023-05-14T01:19:51.698Z,85.52
2023-05-14T01:22:49.153Z,85.48
2023-05-14T01:25:46.716Z,85.52
2023-05-14T01:28:44.096Z,85.53
2023-05-14T01:31:41.855Z,85.47
2023-05-14T01:34:39.435Z,85.45
2023-05-14T01:37:37.164Z,85.44
2023-05-14T01:40:34.789Z,85.53
2023-05-14T01:43:32.436Z,85.64
2023-05-14T01:46:30.222Z,85.66
2023-05-14T01:49:27.710Z,85.72
2023-05-14T01:52:25.330Z,85.78
2023-05-14T01:55:23.795Z,85.76
2023-05-14T01:58:21.448Z,85.68
2023-05-14T02:01:19.103Z,85.50
2023-05-14T02:04:16.571Z,85.39
2023-05-14T02:07:14.239Z,85.26
2023-05-14T02:10:11.676Z,85.11
2023-05-14T02:13:09.951Z,84.94
2023-05-14T02:16:07.409Z,84.89
2023-05-14T02:19:05.276Z,84.96
2023-05-14T02:22:02.853Z,84.89
2023-05-14T02:25:00.545Z,84.72
2023-05-14T02:27:58.284Z,84.62
2023-05-14T02:30:55.733Z,84.51
2023-05-14T02:33:53.492Z,84.52
2023-05-14T02:36:50.899Z,84.67
2023-05-14T02:39:49.334Z,84.76
2023-05-14T02:42:46.747Z,84.58
2023-05-14T02:45:44.360Z,84.52
2023-05-14T02:48:42.453Z,84.52
2023-05-14T02:51:39.960Z,84.49
2023-05-14T02:54:37.659Z,84.47
2023-05-14T02:57:35.095Z,84.53
2023-05-14T03:00:32.831Z,84.59
2023-05-14T03:03:30.866Z,84.56
2023-05-14T03:06:29.152Z,84.60
2023-05-14T03:09:26.697Z,84.59
2023-05-14T03:12:24.112Z,84.53
2023-05-14T03:15:21.845Z,84.59
2023-05-14T03:18:19.250Z,84.33
2023-05-14T03:21:16.975Z,84.23
2023-05-14T03:24:14.363Z,84.02
2023-05-14T03:27:12.094Z,83.96
2023-05-14T03:30:09.692Z,83.96
2023-05-14T03:33:07.497Z,83.93
2023-05-14T03:36:04.977Z,83.89
2023-05-14T03:39:02.649Z,83.92
2023-05-14T03:42:00.322Z,83.98
2023-05-14T03:44:57.760Z,84.18
2023-05-14T03:47:55.557Z,84.11
2023-05-14T03:50:53.129Z,84.11
2023-05-14T03:53:50.860Z,83.98
2023-05-14T03:56:48.492Z,84.04
2023-05-14T03:59:45.941Z,84.15
2023-05-14T04:02:43.839Z,84.14
2023-05-14T04:05:41.410Z,84.16
2023-05-14T04:08:39.102Z,84.28
2023-05-14T04:11:36.554Z,84.17
2023-05-14T04:14:34.310Z,84.21
2023-05-14T04:17:31.921Z,84.30
2023-05-14T04:20:30.460Z,84.57
2023-05-14T04:23:28.088Z,84.80
2023-05-14T04:26:25.550Z,84.80
2023-05-14T04:29:23.386Z,84.30
2023-05-14T04:32:21.519Z,84.05
2023-05-14T04:35:21.626Z,83.94
2023-05-14T04:38:20.827Z,83.91
2023-05-14T04:41:18.487Z,83.94
2023-05-14T04:44:15.911Z,84.05
2023-05-14T04:47:13.640Z,84.44
2023-05-14T04:50:11.415Z,84.40
2023-05-14T04:53:08.867Z,84.46
2023-05-14T04:56:07.050Z,84.54
2023-05-14T04:59:04.505Z,84.69
2023-05-14T05:02:02.402Z,84.92
2023-05-14T05:04:59.806Z,85.09
2023-05-14T05:07:57.619Z,85.17
2023-05-14T05:10:55.010Z,85.13
2023-05-14T05:13:52.581Z,84.91
2023-05-14T05:16:50.032Z,84.78
2023-05-14T05:19:48.455Z,84.47
2023-05-14T05:22:46.252Z,84.64
2023-05-14T05:25:43.690Z,84.40
2023-05-14T05:28:41.290Z,84.21
2023-05-14T05:31:39.102Z,84.08
2023-05-14T05:34:37.165Z,84.23
2023-05-14T05:37:34.558Z,84.08
2023-05-14T05:40:32.237Z,84.29
2023-05-14T05:43:30.096Z,84.26
2023-05-14T05:46:27.565Z,83.87
2023-05-14T05:49:25.177Z,83.69
2023-05-14T05:52:22.626Z,83.51
2023-05-14T05:55:20.678Z,83.48
2023-05-14T05:58:18.069Z,83.40
2023-05-14T06:01:16.416Z,83.35
2023-05-14T06:04:13.843Z,83.43
2023-05-14T06:07:11.479Z,83.35
2023-05-14T06:10:09.128Z,83.14
2023-05-14T06:13:07.484Z,82.88
2023-05-14T06:16:05.100Z,82.94
2023-05-14T06:19:02.645Z,82.87
2023-05-14T06:22:00.474Z,82.99
2023-05-14T06:24:57.865Z,82.87
2023-05-14T06:27:55.592Z,82.74
2023-05-14T06:30:54.361Z,82.79
2023-05-14T06:33:51.770Z,82.77
2023-05-14T06:36:49.491Z,82.95
2023-05-14T06:39:50.211Z,83.06
2023-05-14T06:42:48.008Z,83.04
2023-05-14T06:45:45.991Z,83.10
2023-05-14T06:48:43.593Z,83.29
2023-05-14T06:51:42.252Z,83.42
2023-05-14T06:54:39.666Z,83.43
2023-05-14T06:57:39.191Z,83.42
2023-05-14T07:00:37.947Z,83.51
2023-05-14T07:03:35.785Z,83.76
2023-05-14T07:06:33.679Z,83.98
2023-05-14T07:09:31.242Z,84.17
2023-05-14T07:12:28.697Z,84.18
2023-05-14T07:15:26.341Z,84.16
2023-05-14T07:18:24.391Z,84.38
2023-05-14T07:21:21.851Z,84.71
2023-05-14T07:24:19.456Z,84.85
2023-05-14T07:27:17.627Z,84.83
2023-05-14T07:30:15.465Z,85.32
2023-05-14T07:33:13.181Z,85.49
2023-05-14T07:36:10.898Z,85.43
2023-05-14T07:39:09.166Z,85.27
2023-05-14T07:42:06.594Z,85.41
2023-05-14T07:45:04.284Z,85.38
2023-05-14T07:48:01.791Z,85.56
2023-05-14T07:50:59.576Z,85.62
2023-05-14T07:53:56.985Z,85.98
2023-05-14T07:56:54.658Z,86.13
2023-05-14T07:59:52.347Z,86.08
2023-05-14T08:02:50.564Z,86.06
2023-05-14T08:05:48.521Z,86.16
2023-05-14T08:08:45.968Z,86.48
2023-05-14T08:11:43.982Z,86.65
2023-05-14T08:14:41.453Z,86.37
2023-05-14T08:17:39.371Z,85.89
2023-05-14T08:20:36.890Z,86.06
2023-05-14T08:23:34.551Z,86.04
2023-05-14T08:26:31.998Z,86.10
2023-05-14T08:29:29.546Z,86.01
2023-05-14T08:32:27.669Z,86.01
2023-05-14T08:35:25.283Z,86.30
2023-05-14T08:38:22.903Z,86.30
2023-05-14T08:41:21.399Z,86.34
2023-05-14T08:44:18.992Z,86.50
2023-05-14T08:47:16.412Z,86.71
2023-05-14T08:50:14.037Z,86.64
2023-05-14T08:53:11.742Z,86.61
2023-05-14T08:56:09.158Z,86.64
2023-05-14T08:59:06.822Z,86.67
2023-05-14T09:02:05.280Z,86.64
2023-05-14T09:05:03.755Z,86.71
2023-05-14T09:08:01.234Z,86.79
2023-05-14T09:10:58.924Z,86.86
2023-05-14T09:13:56.378Z,86.64
2023-05-14T09:16:54.982Z,86.60
2023-05-14T09:19:53.463Z,86.93
2023-05-14T09:22:50.978Z,86.92
2023-05-14T09:25:48.784Z,86.89
2023-05-14T09:28:46.475Z,86.68
2023-05-14T09:31:44.376Z,86.76
2023-05-14T09:34:42.313Z,86.86
2023-05-14T09:37:40.034Z,86.89
2023-05-14T09:40:37.640Z,86.86
2023-05-14T09:43:35.037Z,86.99
2023-05-14T09:46:32.689Z,86.93
2023-05-14T09:49:30.148Z,87.00
2023-05-14T09:52:28.378Z,87.04
2023-05-14T09:55:26.077Z,87.12
2023-05-14T09:58:23.558Z,87.02
2023-05-14T10:01:21.748Z,87.12
2023-05-14T10:04:19.512Z,87.23
2023-05-14T10:07:17.329Z,87.50
2023-05-14T10:10:14.792Z,87.66
2023-05-14T10:13:12.557Z,87.45
2023-05-14T10:16:10.693Z,87.45
2023-05-14T10:19:08.540Z,87.47
2023-05-14T10:22:06.361Z,87.43
2023-05-14T10:25:04.269Z,87.36
2023-05-14T10:28:01.842Z,87.14
2023-05-14T10:30:59.369Z,87.23
2023-05-14T10:33:58.605Z,87.17
2023-05-14T10:36:57.279Z,87.17
2023-05-14T10:39:54.916Z,87.20
2023-05-14T10:42:52.670Z,87.44
2023-05-14T10:45:50.087Z,87.37
2023-05-14T10:48:47.738Z,87.20
2023-05-14T10:51:45.190Z,87.18
2023-05-14T10:54:43.566Z,87.34
2023-05-14T10:57:41.388Z,87.41
2023-05-14T11:00:38.833Z,87.65
2023-05-14T11:03:37.133Z,87.72
2023-05-14T11:06:34.791Z,87.54
2023-05-14T11:09:32.422Z,87.43
2023-05-14T11:12:29.859Z,87.49
2023-05-14T11:15:28.920Z,87.35
2023-05-14T11:18:28.571Z,87.44
2023-05-14T11:21:26.151Z,87.53
2023-05-14T11:24:23.825Z,87.49
2023-05-14T11:27:21.251Z,87.69
2023-05-14T11:30:19.003Z,87.54
2023-05-14T11:33:16.915Z,87.52
2023-05-14T11:36:15.080Z,87.56
2023-05-14T11:39:12.921Z,87.52
2023-05-14T11:42:13.051Z,87.70
2023-05-14T11:45:11.747Z,87.80
2023-05-14T11:48:09.195Z,87.76
2023-05-14T11:51:07.057Z,87.87
2023-05-14T11:54:04.498Z,87.92
2023-05-14T11:57:02.686Z,88.06
2023-05-14T12:00:00.088Z,88.10
2023-05-14T12:02:57.737Z,87.96
2023-05-14T12:05:55.583Z,88.10
2023-05-14T12:08:52.973Z,87.98
2023-05-14T12:11:51.113Z,88.05
2023-05-14T12:14:48.566Z,87.92
2023-05-14T12:17:46.875Z,87.89
2023-05-14T12:20:44.333Z,88.03
2023-05-14T12:23:42.177Z,88.39
2023-05-14T12:26:41.070Z,88.31
2023-05-14T12:29:39.188Z,88.39
2023-05-14T12:32:37.028Z,88.50
2023-05-14T12:35:34.595Z,88.29
2023-05-14T12:38:32.204Z,88.26
2023-05-14T12:41:29.610Z,88.22
2023-05-14T12:44:27.250Z,88.37
2023-05-14T12:47:24.789Z,88.55
2023-05-14T12:50:22.771Z,88.55
2023-05-14T12:53:20.666Z,88.69
2023-05-14T12:56:18.108Z,88.43
2023-05-14T12:59:15.930Z,88.25
2023-05-14T13:02:14.437Z,88.14
2023-05-14T13:05:13.775Z,88.01
2023-05-14T13:08:11.234Z,88.05
2023-05-14T13:11:08.914Z,87.86
2023-05-14T13:14:06.328Z,88.00
2023-05-14T13:17:04.018Z,87.67
2023-05-14T13:20:01.953Z,87.81
2023-05-14T13:22:59.382Z,88.15
2023-05-14T13:25:57.036Z,88.00
2023-05-14T13:28:54.514Z,88.15
2023-05-14T13:31:53.318Z,88.12
2023-05-14T13:34:50.715Z,88.03
2023-05-14T13:37:48.323Z,88.18
2023-05-14T13:40:45.777Z,88.17
2023-05-14T13:43:43.429Z,88.20
2023-05-14T13:46:41.141Z,88.00
2023-05-14T13:49:38.569Z,87.88
2023-05-14T13:52:36.315Z,87.96
2023-05-14T13:55:33.857Z,88.05
2023-05-14T13:58:31.458Z,87.96
2023-05-14T14:01:31.090Z,87.56
2023-05-14T14:04:29.091Z,87.63
2023-05-14T14:07:26.921Z,87.60
2023-05-14T14:10:24.351Z,87.67
2023-05-14T14:13:23.056Z,87.72
2023-05-14T14:16:20.926Z,87.92
2023-05-14T14:19:18.967Z,87.95
2023-05-14T14:22:17.470Z,87.83
2023-05-14T14:25:15.417Z,87.96
2023-05-14T14:28:13.119Z,88.10
2023-05-14T14:31:10.635Z,88.17
2023-05-14T14:34:08.350Z,88.15
2023-05-14T14:37:06.338Z,88.24
2023-05-14T14:40:06.230Z,88.26
2023-05-14T14:43:04.064Z,88.22
2023-05-14T14:46:01.726Z,88.12
2023-05-14T14:48:59.138Z,87.95
2023-05-14T14:51:56.880Z,87.75
2023-05-14T14:54:54.316Z,87.78
2023-05-14T14:57:52.130Z,87.81
2023-05-14T15:00:49.520Z,87.86
2023-05-14T15:03:48.580Z,88.06
2023-05-14T15:06:46.028Z,88.06
2023-05-14T15:09:43.792Z,88.14
2023-05-14T15:12:41.456Z,88.01
2023-05-14T15:15:38.862Z,88.19
2023-05-14T15:18:36.575Z,88.36
2023-05-14T15:21:34.046Z,88.44
2023-05-14T15:24:31.778Z,88.41
2023-05-14T15:27:29.229Z,88.39
2023-05-14T15:30:26.938Z,88.63
2023-05-14T15:33:25.231Z,88.75
2023-05-14T15:36:22.641Z,88.84
2023-05-14T15:39:20.287Z,88.83
2023-05-14T15:42:17.678Z,88.87
2023-05-14T15:45:15.290Z,88.88
2023-05-14T15:48:13.096Z,88.83
2023-05-14T15:51:10.648Z,88.80
2023-05-14T15:54:08.468Z,88.73
2023-05-14T15:57:05.846Z,88.79
2023-05-14T16:00:09.363Z,88.88
2023-05-14T16:03:07.133Z,88.80
2023-05-14T16:06:04.856Z,88.91
2023-05-14T16:09:03.241Z,88.70
2023-05-14T16:12:00.917Z,88.68
2023-05-14T16:14:59.386Z,88.78
2023-05-14T16:17:56.814Z,89.08
2023-05-14T16:20:54.610Z,89.17
2023-05-14T16:23:52.048Z,89.19
2023-05-14T16:26:49.672Z,89.31
2023-05-14T16:29:47.081Z,89.19
2023-05-14T16:32:48.674Z,89.32
2023-05-14T16:35:47.026Z,89.38
2023-05-14T16:39:05.126Z,89.40
2023-05-14T16:42:02.435Z,89.46
2023-05-14T16:44:59.911Z,89.42
2023-05-14T16:47:57.871Z,89.61
2023-05-14T16:50:56.283Z,89.82
2023-05-14T16:53:55.508Z,89.62
2023-05-14T16:56:53.406Z,89.48
2023-05-14T16:59:51.091Z,89.32
2023-05-14T17:02:50.220Z,89.46
2023-05-14T17:05:47.644Z,89.49
2023-05-14T17:08:45.518Z,89.48
2023-05-14T17:11:42.971Z,89.54
2023-05-14T17:14:40.654Z,89.58
2023-05-14T17:17:38.658Z,89.61
2023-05-14T17:20:36.137Z,89.70
2023-05-14T17:23:33.778Z,89.83
2023-05-14T17:26:31.241Z,89.84
2023-05-14T17:29:28.872Z,89.79
2023-05-14T17:32:26.648Z,90.01
2023-05-14T17:35:24.717Z,89.86
2023-05-14T17:38:22.845Z,89.94
2023-05-14T17:41:20.281Z,89.98
2023-05-14T17:44:18.202Z,90.10
2023-05-14T17:47:15.749Z,90.02
2023-05-14T17:50:13.427Z,90.20
2023-05-14T17:53:11.204Z,90.31
2023-05-14T17:56:08.882Z,90.31
2023-05-14T17:59:07.453Z,90.38
2023-05-14T18:02:05.748Z,90.42
2023-05-14T18:05:04.229Z,90.46
2023-05-14T18:08:01.746Z,90.52
2023-05-14T18:11:01.518Z,90.54
2023-05-14T18:13:59.067Z,90.54
2023-05-14T18:16:56.797Z,90.49
2023-05-14T18:19:54.455Z,90.54
2023-05-14T18:22:53.087Z,90.51
2023-05-14T18:25:50.586Z,90.54
2023-05-14T18:28:48.518Z,90.52
2023-05-14T18:31:46.286Z,90.50
2023-05-14T18:34:44.111Z,90.54
2023-05-14T18:37:42.140Z,90.53
2023-05-14T18:40:39.592Z,90.57
2023-05-14T18:43:37.351Z,90.62
2023-05-14T18:46:35.300Z,90.67
2023-05-14T18:49:33.738Z,90.65
2023-05-14T18:52:33.913Z,90.73
2023-05-14T18:55:31.397Z,90.56
2023-05-14T18:58:29.029Z,90.47
2023-05-14T19:01:26.715Z,90.48
2023-05-14T19:04:25.507Z,90.50
2023-05-14T19:07:23.411Z,90.65
2023-05-14T19:10:21.165Z,90.77
2023-05-14T19:13:19.629Z,90.83
2023-05-14T19:16:17.618Z,90.94
2023-05-14T19:19:15.832Z,91.06
2023-05-14T19:22:13.417Z,91.06
2023-05-14T19:25:12.045Z,91.07
2023-05-14T19:28:10.713Z,91.11
2023-05-14T19:31:08.221Z,91.10
2023-05-14T19:34:06.701Z,91.00
2023-05-14T19:37:04.742Z,91.04
2023-05-14T19:40:02.364Z,91.11
2023-05-14T19:42:59.865Z,91.16
2023-05-14T19:48:55.489Z,91.15
2023-05-14T19:51:52.920Z,91.15
2023-05-14T19:54:53.882Z,91.14
2023-05-14T19:57:51.426Z,91.11
2023-05-14T20:00:51.689Z,91.09
2023-05-14T20:03:49.268Z,91.15
2023-05-14T20:06:47.547Z,91.17
2023-05-14T20:09:45.327Z,91.18
2023-05-14T20:12:42.996Z,91.18
2023-05-14T20:15:40.622Z,91.21
2023-05-14T20:18:38.134Z,91.23
2023-05-14T20:21:35.904Z,91.23
2023-05-14T20:24:35.791Z,91.25
2023-05-14T20:27:34.103Z,91.29
2023-05-14T20:30:31.852Z,91.31
2023-05-14T20:33:29.420Z,91.33
2023-05-14T20:36:27.159Z,91.36
2023-05-14T20:39:24.644Z,91.38
2023-05-14T20:42:22.368Z,91.38
2023-05-14T20:45:20.070Z,91.41
2023-05-14T20:48:17.709Z,91.40
2023-05-14T20:51:15.455Z,91.40
2023-05-14T20:54:13.024Z,91.38
2023-05-14T20:57:10.661Z,91.36
2023-05-14T21:00:10.042Z,91.37
2023-05-14T21:03:08.085Z,91.37
2023-05-14T21:06:06.224Z,91.39
2023-05-14T21:09:03.832Z,91.35
2023-05-14T21:12:01.761Z,91.35
2023-05-14T21:14:59.502Z,91.40
2023-05-14T21:17:57.503Z,91.43
2023-05-14T21:20:55.103Z,91.44
2023-05-14T21:23:52.904Z,91.43
2023-05-14T21:26:52.236Z,91.45
2023-05-14T21:29:51.456Z,91.46
2023-05-14T21:32:49.398Z,91.46
2023-05-14T21:35:46.989Z,91.48
2023-05-14T21:38:44.719Z,91.50
2023-05-14T21:41:42.170Z,91.49
2023-05-14T21:44:39.878Z,91.49
2023-05-14T21:47:37.423Z,91.51
2023-05-14T21:50:35.343Z,91.54
2023-05-14T21:53:32.791Z,91.54
2023-05-14T21:56:30.460Z,91.54
2023-05-14T21:59:28.125Z,91.55
2023-05-14T22:02:26.246Z,91.56
2023-05-14T22:05:24.141Z,91.56
2023-05-14T22:08:21.691Z,91.54
2023-05-14T22:11:19.323Z,91.52
2023-05-14T22:14:16.795Z,91.49
2023-05-14T22:17:14.405Z,91.47
2023-05-14T22:20:12.184Z,91.47
2023-05-14T22:23:09.648Z,91.48
2023-05-14T22:26:07.236Z,91.49
2023-05-14T22:29:04.690Z,91.48
2023-05-14T22:32:02.373Z,91.48
2023-05-14T22:35:00.122Z,91.50
2023-05-14T22:37:57.942Z,91.51
2023-05-14T22:40:55.355Z,91.54
2023-05-14T22:43:53.043Z,91.54
2023-05-14T22:46:50.939Z,91.56
2023-05-14T22:49:48.461Z,91.54
2023-05-14T22:52:46.116Z,91.51
2023-05-14T22:55:43.596Z,91.50
2023-05-14T22:58:42.019Z,91.42
2023-05-14T23:01:39.668Z,91.37
2023-05-14T23:04:37.159Z,91.37
2023-05-14T23:07:34.896Z,91.36
2023-05-14T23:10:32.379Z,91.35
2023-05-14T23:13:31.359Z,91.31
2023-05-14T23:16:28.742Z,91.30
2023-05-14T23:19:26.895Z,91.24
2023-05-14T23:22:24.413Z,91.18
2023-05-14T23:25:22.187Z,91.13
2023-05-14T23:28:20.191Z,91.16
2023-05-14T23:31:17.706Z,91.17
2023-05-14T23:34:15.486Z,91.13
2023-05-14T23:37:13.617Z,91.10
2023-05-14T23:40:11.354Z,91.09
2023-05-14T23:43:08.816Z,91.03
2023-05-14T23:46:06.607Z,90.98
2023-05-14T23:49:04.152Z,90.95
2023-05-14T23:52:01.920Z,90.91
2023-05-14T23:54:59.355Z,90.89
2023-05-14T23:57:57.083Z,90.87
